sensor_id;sensor_type;location;lat;lon;timestamp;P1;durP1;ratioP1;P2;durP2;ratioP2
67602;SDS011;54417;47.454;18.918;2023-12-22T00:00:15;28.70;;;15.50;;
67602;SDS011;54417;47.454;18.918;2023-12-22T00:05:26;25.98;;;15.88;;
67602;SDS011;54417;47.454;18.918;2023-12-22T00:10:35;32.03;;;19.60;;
67602;SDS011;54417;47.454;18.918;2023-12-22T00:15:38;28.27;;;18.75;;
67602;SDS011;54417;47.454;18.918;2023-12-22T00:20:48;29.52;;;16.35;;
67602;SDS011;54417;47.454;18.918;2023-12-22T00:25:57;24.88;;;15.55;;
67602;SDS011;54417;47.454;18.918;2023-12-22T00:31:06;24.48;;;15.65;;
67602;SDS011;54417;47.454;18.918;2023-12-22T00:36:17;18.05;;;9.13;;
67602;SDS011;54417;47.454;18.918;2023-12-22T00:41:30;13.63;;;6.78;;
67602;SDS011;54417;47.454;18.918;2023-12-22T00:46:38;7.78;;;5.45;;
67602;SDS011;54417;47.454;18.918;2023-12-22T00:51:49;9.90;;;5.70;;
67602;SDS011;54417;47.454;18.918;2023-12-22T00:56:57;10.95;;;5.63;;
67602;SDS011;54417;47.454;18.918;2023-12-22T01:02:06;8.02;;;5.78;;
67602;SDS011;54417;47.454;18.918;2023-12-22T01:07:16;7.82;;;4.47;;
67602;SDS011;54417;47.454;18.918;2023-12-22T01:12:25;4.33;;;3.33;;
67602;SDS011;54417;47.454;18.918;2023-12-22T01:17:34;6.72;;;3.38;;
67602;SDS011;54417;47.454;18.918;2023-12-22T01:22:45;4.18;;;2.92;;
67602;SDS011;54417;47.454;18.918;2023-12-22T01:27:54;7.45;;;3.63;;
67602;SDS011;54417;47.454;18.918;2023-12-22T01:33:03;3.55;;;3.20;;
67602;SDS011;54417;47.454;18.918;2023-12-22T01:38:13;6.00;;;2.83;;
67602;SDS011;54417;47.454;18.918;2023-12-22T01:43:22;3.45;;;2.47;;
67602;SDS011;54417;47.454;18.918;2023-12-22T01:48:31;3.28;;;1.92;;
67602;SDS011;54417;47.454;18.918;2023-12-22T01:53:41;4.10;;;1.88;;
67602;SDS011;54417;47.454;18.918;2023-12-22T01:58:50;3.72;;;2.33;;
67602;SDS011;54417;47.454;18.918;2023-12-22T02:04:01;2.83;;;1.53;;
67602;SDS011;54417;47.454;18.918;2023-12-22T02:09:08;2.53;;;1.83;;
67602;SDS011;54417;47.454;18.918;2023-12-22T02:14:17;1.48;;;1.25;;
67602;SDS011;54417;47.454;18.918;2023-12-22T02:19:27;3.83;;;1.50;;
67602;SDS011;54417;47.454;18.918;2023-12-22T02:24:45;1.83;;;1.40;;
67602;SDS011;54417;47.454;18.918;2023-12-22T02:29:57;3.55;;;1.35;;
67602;SDS011;54417;47.454;18.918;2023-12-22T02:35:10;1.60;;;1.17;;
67602;SDS011;54417;47.454;18.918;2023-12-22T02:40:23;3.08;;;1.13;;
67602;SDS011;54417;47.454;18.918;2023-12-22T02:45:32;1.88;;;1.13;;
67602;SDS011;54417;47.454;18.918;2023-12-22T02:50:36;2.63;;;1.33;;
67602;SDS011;54417;47.454;18.918;2023-12-22T02:55:46;1.38;;;0.90;;
67602;SDS011;54417;47.454;18.918;2023-12-22T03:00:55;0.90;;;0.90;;
67602;SDS011;54417;47.454;18.918;2023-12-22T03:06:04;2.05;;;1.50;;
67602;SDS011;54417;47.454;18.918;2023-12-22T03:11:09;1.92;;;1.20;;
67602;SDS011;54417;47.454;18.918;2023-12-22T03:16:18;2.80;;;1.25;;
67602;SDS011;54417;47.454;18.918;2023-12-22T03:21:27;1.45;;;1.00;;
67602;SDS011;54417;47.454;18.918;2023-12-22T03:26:37;0.95;;;0.88;;
67602;SDS011;54417;47.454;18.918;2023-12-22T03:31:46;2.47;;;0.70;;
67602;SDS011;54417;47.454;18.918;2023-12-22T03:36:55;2.17;;;0.63;;
67602;SDS011;54417;47.454;18.918;2023-12-22T03:42:05;0.90;;;0.90;;
67602;SDS011;54417;47.454;18.918;2023-12-22T03:47:09;0.77;;;0.63;;
67602;SDS011;54417;47.454;18.918;2023-12-22T03:52:17;1.20;;;0.98;;
67602;SDS011;54417;47.454;18.918;2023-12-22T03:57:28;2.80;;;0.70;;
67602;SDS011;54417;47.454;18.918;2023-12-22T04:02:36;1.00;;;0.77;;
67602;SDS011;54417;47.454;18.918;2023-12-22T04:07:46;3.60;;;0.75;;
67602;SDS011;54417;47.454;18.918;2023-12-22T04:12:57;4.30;;;1.08;;
67602;SDS011;54417;47.454;18.918;2023-12-22T04:18:06;9.15;;;1.25;;
67602;SDS011;54417;47.454;18.918;2023-12-22T04:23:15;2.22;;;1.08;;
67602;SDS011;54417;47.454;18.918;2023-12-22T04:28:25;1.08;;;0.63;;
67602;SDS011;54417;47.454;18.918;2023-12-22T04:33:34;1.25;;;0.80;;
67602;SDS011;54417;47.454;18.918;2023-12-22T04:38:42;1.30;;;1.20;;
67602;SDS011;54417;47.454;18.918;2023-12-22T04:43:52;2.72;;;0.63;;
67602;SDS011;54417;47.454;18.918;2023-12-22T04:49:01;1.63;;;1.10;;
67602;SDS011;54417;47.454;18.918;2023-12-22T04:54:06;0.60;;;0.60;;
67602;SDS011;54417;47.454;18.918;2023-12-22T04:59:16;3.08;;;1.00;;
67602;SDS011;54417;47.454;18.918;2023-12-22T05:04:19;3.78;;;1.00;;
67602;SDS011;54417;47.454;18.918;2023-12-22T05:09:28;2.78;;;1.10;;
67602;SDS011;54417;47.454;18.918;2023-12-22T05:14:38;2.90;;;1.35;;
67602;SDS011;54417;47.454;18.918;2023-12-22T05:19:42;1.52;;;0.80;;
67602;SDS011;54417;47.454;18.918;2023-12-22T05:24:51;1.75;;;0.77;;
67602;SDS011;54417;47.454;18.918;2023-12-22T05:30:01;1.88;;;1.05;;
67602;SDS011;54417;47.454;18.918;2023-12-22T05:35:11;3.70;;;1.10;;
67602;SDS011;54417;47.454;18.918;2023-12-22T05:40:20;5.38;;;1.08;;
67602;SDS011;54417;47.454;18.918;2023-12-22T05:45:30;6.43;;;1.65;;
67602;SDS011;54417;47.454;18.918;2023-12-22T05:50:39;6.30;;;1.75;;
67602;SDS011;54417;47.454;18.918;2023-12-22T05:55:48;5.90;;;1.10;;
67602;SDS011;54417;47.454;18.918;2023-12-22T06:00:58;6.05;;;1.48;;
67602;SDS011;54417;47.454;18.918;2023-12-22T06:06:08;1.63;;;1.10;;
67602;SDS011;54417;47.454;18.918;2023-12-22T06:11:16;2.83;;;1.02;;
67602;SDS011;54417;47.454;18.918;2023-12-22T06:16:21;2.50;;;1.10;;
67602;SDS011;54417;47.454;18.918;2023-12-22T06:21:25;9.60;;;1.17;;
67602;SDS011;54417;47.454;18.918;2023-12-22T06:26:34;4.13;;;0.98;;
67602;SDS011;54417;47.454;18.918;2023-12-22T06:31:44;1.30;;;1.20;;
67602;SDS011;54417;47.454;18.918;2023-12-22T06:36:57;6.78;;;1.85;;
67602;SDS011;54417;47.454;18.918;2023-12-22T06:42:06;9.77;;;1.58;;
67602;SDS011;54417;47.454;18.918;2023-12-22T06:47:14;6.40;;;1.58;;
67602;SDS011;54417;47.454;18.918;2023-12-22T06:52:23;8.07;;;1.23;;
67602;SDS011;54417;47.454;18.918;2023-12-22T06:57:32;2.45;;;1.08;;
67602;SDS011;54417;47.454;18.918;2023-12-22T07:02:44;3.75;;;1.30;;
67602;SDS011;54417;47.454;18.918;2023-12-22T07:07:49;1.40;;;0.80;;
67602;SDS011;54417;47.454;18.918;2023-12-22T07:12:58;4.20;;;1.13;;
67602;SDS011;54417;47.454;18.918;2023-12-22T07:18:09;3.50;;;1.00;;
67602;SDS011;54417;47.454;18.918;2023-12-22T07:23:18;4.55;;;1.20;;
67602;SDS011;54417;47.454;18.918;2023-12-22T07:28:27;7.05;;;1.95;;
67602;SDS011;54417;47.454;18.918;2023-12-22T07:33:32;5.25;;;1.75;;
67602;SDS011;54417;47.454;18.918;2023-12-22T07:38:41;6.82;;;1.90;;
67602;SDS011;54417;47.454;18.918;2023-12-22T07:43:50;7.88;;;1.58;;
67602;SDS011;54417;47.454;18.918;2023-12-22T07:49:00;5.60;;;1.63;;
67602;SDS011;54417;47.454;18.918;2023-12-22T07:54:09;3.50;;;0.80;;
67602;SDS011;54417;47.454;18.918;2023-12-22T07:59:18;2.60;;;1.10;;
67602;SDS011;54417;47.454;18.918;2023-12-22T08:04:38;4.47;;;1.25;;
67602;SDS011;54417;47.454;18.918;2023-12-22T08:09:48;4.70;;;0.85;;
67602;SDS011;54417;47.454;18.918;2023-12-22T08:14:57;9.63;;;1.10;;
67602;SDS011;54417;47.454;18.918;2023-12-22T08:20:08;4.95;;;1.20;;
67602;SDS011;54417;47.454;18.918;2023-12-22T08:25:21;2.25;;;0.98;;
67602;SDS011;54417;47.454;18.918;2023-12-22T08:30:30;2.95;;;1.05;;
67602;SDS011;54417;47.454;18.918;2023-12-22T08:35:40;3.05;;;1.33;;
67602;SDS011;54417;47.454;18.918;2023-12-22T08:40:49;8.10;;;0.95;;
67602;SDS011;54417;47.454;18.918;2023-12-22T08:45:54;4.72;;;1.40;;
67602;SDS011;54417;47.454;18.918;2023-12-22T08:51:05;5.07;;;1.35;;
67602;SDS011;54417;47.454;18.918;2023-12-22T08:56:13;4.65;;;1.00;;
67602;SDS011;54417;47.454;18.918;2023-12-22T09:01:23;1.98;;;0.95;;
67602;SDS011;54417;47.454;18.918;2023-12-22T09:06:34;1.83;;;1.20;;
67602;SDS011;54417;47.454;18.918;2023-12-22T09:11:43;2.00;;;0.93;;
67602;SDS011;54417;47.454;18.918;2023-12-22T09:16:47;1.80;;;0.80;;
67602;SDS011;54417;47.454;18.918;2023-12-22T09:21:57;4.03;;;1.33;;
67602;SDS011;54417;47.454;18.918;2023-12-22T09:27:06;3.03;;;1.10;;
67602;SDS011;54417;47.454;18.918;2023-12-22T09:32:14;2.03;;;1.13;;
67602;SDS011;54417;47.454;18.918;2023-12-22T09:37:25;6.55;;;1.92;;
67602;SDS011;54417;47.454;18.918;2023-12-22T09:42:34;7.30;;;1.42;;
67602;SDS011;54417;47.454;18.918;2023-12-22T09:47:43;0.57;;;0.57;;
67602;SDS011;54417;47.454;18.918;2023-12-22T09:52:54;4.03;;;1.17;;
67602;SDS011;54417;47.454;18.918;2023-12-22T09:58:03;8.97;;;2.23;;
67602;SDS011;54417;47.454;18.918;2023-12-22T10:03:13;3.53;;;1.58;;
67602;SDS011;54417;47.454;18.918;2023-12-22T10:08:26;1.55;;;0.80;;
67602;SDS011;54417;47.454;18.918;2023-12-22T10:13:36;3.90;;;0.88;;
67602;SDS011;54417;47.454;18.918;2023-12-22T10:18:42;1.38;;;0.80;;
67602;SDS011;54417;47.454;18.918;2023-12-22T10:23:48;0.50;;;0.50;;
67602;SDS011;54417;47.454;18.918;2023-12-22T10:28:57;2.22;;;0.95;;
67602;SDS011;54417;47.454;18.918;2023-12-22T10:34:01;1.40;;;0.68;;
67602;SDS011;54417;47.454;18.918;2023-12-22T10:39:11;3.42;;;0.80;;
67602;SDS011;54417;47.454;18.918;2023-12-22T10:44:20;2.60;;;0.85;;
67602;SDS011;54417;47.454;18.918;2023-12-22T10:49:31;0.82;;;0.82;;
67602;SDS011;54417;47.454;18.918;2023-12-22T10:54:43;1.30;;;1.15;;
67602;SDS011;54417;47.454;18.918;2023-12-22T10:59:52;1.27;;;1.10;;
67602;SDS011;54417;47.454;18.918;2023-12-22T11:05:00;0.57;;;0.57;;
67602;SDS011;54417;47.454;18.918;2023-12-22T11:10:14;1.55;;;1.00;;
67602;SDS011;54417;47.454;18.918;2023-12-22T11:15:26;0.77;;;0.52;;
67602;SDS011;54417;47.454;18.918;2023-12-22T11:20:36;1.63;;;0.80;;
67602;SDS011;54417;47.454;18.918;2023-12-22T11:25:48;1.05;;;0.68;;
67602;SDS011;54417;47.454;18.918;2023-12-22T11:31:01;0.70;;;0.70;;
67602;SDS011;54417;47.454;18.918;2023-12-22T11:36:11;1.38;;;0.80;;
67602;SDS011;54417;47.454;18.918;2023-12-22T11:41:22;1.45;;;0.98;;
67602;SDS011;54417;47.454;18.918;2023-12-22T11:46:34;2.28;;;1.00;;
67602;SDS011;54417;47.454;18.918;2023-12-22T11:51:43;1.08;;;0.60;;
67602;SDS011;54417;47.454;18.918;2023-12-22T11:56:50;1.13;;;0.60;;
67602;SDS011;54417;47.454;18.918;2023-12-22T12:01:59;0.75;;;0.68;;
67602;SDS011;54417;47.454;18.918;2023-12-22T12:13:05;1.60;;;0.65;;
67602;SDS011;54417;47.454;18.918;2023-12-22T12:18:14;0.65;;;0.65;;
67602;SDS011;54417;47.454;18.918;2023-12-22T12:23:23;3.15;;;1.10;;
67602;SDS011;54417;47.454;18.918;2023-12-22T12:28:34;1.67;;;0.70;;
67602;SDS011;54417;47.454;18.918;2023-12-22T12:33:45;0.63;;;0.57;;
67602;SDS011;54417;47.454;18.918;2023-12-22T12:38:55;0.52;;;0.50;;
67602;SDS011;54417;47.454;18.918;2023-12-22T12:44:11;4.97;;;1.00;;
67602;SDS011;54417;47.454;18.918;2023-12-22T12:49:21;2.22;;;1.08;;
67602;SDS011;54417;47.454;18.918;2023-12-22T12:54:30;1.52;;;0.90;;
67602;SDS011;54417;47.454;18.918;2023-12-22T12:59:41;1.65;;;0.90;;
67602;SDS011;54417;47.454;18.918;2023-12-22T13:04:48;0.65;;;0.65;;
67602;SDS011;54417;47.454;18.918;2023-12-22T13:09:57;1.00;;;0.80;;
67602;SDS011;54417;47.454;18.918;2023-12-22T13:15:07;3.70;;;1.15;;
67602;SDS011;54417;47.454;18.918;2023-12-22T13:20:12;4.05;;;1.05;;
67602;SDS011;54417;47.454;18.918;2023-12-22T13:25:21;2.65;;;0.80;;
67602;SDS011;54417;47.454;18.918;2023-12-22T13:30:34;3.40;;;1.73;;
67602;SDS011;54417;47.454;18.918;2023-12-22T13:35:38;1.23;;;0.90;;
67602;SDS011;54417;47.454;18.918;2023-12-22T13:40:44;3.42;;;1.00;;
67602;SDS011;54417;47.454;18.918;2023-12-22T13:45:55;2.70;;;0.85;;
67602;SDS011;54417;47.454;18.918;2023-12-22T13:51:04;1.98;;;1.02;;
67602;SDS011;54417;47.454;18.918;2023-12-22T13:56:13;2.65;;;1.00;;
67602;SDS011;54417;47.454;18.918;2023-12-22T14:01:24;0.88;;;0.88;;
67602;SDS011;54417;47.454;18.918;2023-12-22T14:06:32;1.05;;;0.95;;
67602;SDS011;54417;47.454;18.918;2023-12-22T14:11:41;1.38;;;0.90;;
67602;SDS011;54417;47.454;18.918;2023-12-22T14:17:04;2.35;;;0.70;;
67602;SDS011;54417;47.454;18.918;2023-12-22T14:22:14;0.80;;;0.80;;
67602;SDS011;54417;47.454;18.918;2023-12-22T14:27:19;0.70;;;0.70;;
67602;SDS011;54417;47.454;18.918;2023-12-22T14:32:27;0.65;;;0.60;;
67602;SDS011;54417;47.454;18.918;2023-12-22T14:37:32;6.47;;;1.85;;
67602;SDS011;54417;47.454;18.918;2023-12-22T14:42:41;39.28;;;20.13;;
67602;SDS011;54417;47.454;18.918;2023-12-22T14:47:51;2.38;;;1.38;;
67602;SDS011;54417;47.454;18.918;2023-12-22T14:52:56;1.33;;;0.95;;
67602;SDS011;54417;47.454;18.918;2023-12-22T14:58:00;2.53;;;1.20;;
67602;SDS011;54417;47.454;18.918;2023-12-22T15:03:11;1.35;;;1.20;;
67602;SDS011;54417;47.454;18.918;2023-12-22T15:08:15;3.42;;;2.17;;
67602;SDS011;54417;47.454;18.918;2023-12-22T15:13:24;2.17;;;1.80;;
67602;SDS011;54417;47.454;18.918;2023-12-22T15:18:34;1.17;;;1.08;;
67602;SDS011;54417;47.454;18.918;2023-12-22T15:23:43;7.40;;;1.63;;
67602;SDS011;54417;47.454;18.918;2023-12-22T15:28:47;7.55;;;1.67;;
67602;SDS011;54417;47.454;18.918;2023-12-22T15:33:57;7.82;;;2.30;;
67602;SDS011;54417;47.454;18.918;2023-12-22T15:39:06;4.10;;;1.65;;
67602;SDS011;54417;47.454;18.918;2023-12-22T15:44:15;4.38;;;2.35;;
67602;SDS011;54417;47.454;18.918;2023-12-22T15:49:20;1.10;;;1.00;;
67602;SDS011;54417;47.454;18.918;2023-12-22T15:54:29;4.03;;;1.40;;
67602;SDS011;54417;47.454;18.918;2023-12-22T15:59:38;1.63;;;1.00;;
67602;SDS011;54417;47.454;18.918;2023-12-22T16:04:48;2.47;;;1.25;;
67602;SDS011;54417;47.454;18.918;2023-12-22T16:09:57;2.92;;;1.58;;
67602;SDS011;54417;47.454;18.918;2023-12-22T16:15:07;3.55;;;1.90;;
67602;SDS011;54417;47.454;18.918;2023-12-22T16:20:18;2.78;;;2.03;;
67602;SDS011;54417;47.454;18.918;2023-12-22T16:25:23;2.55;;;1.25;;
67602;SDS011;54417;47.454;18.918;2023-12-22T16:30:32;3.72;;;1.40;;
67602;SDS011;54417;47.454;18.918;2023-12-22T16:35:43;8.25;;;1.38;;
67602;SDS011;54417;47.454;18.918;2023-12-22T16:40:47;7.75;;;3.88;;
67602;SDS011;54417;47.454;18.918;2023-12-22T16:45:51;14.27;;;4.63;;
67602;SDS011;54417;47.454;18.918;2023-12-22T16:51:01;7.50;;;2.72;;
67602;SDS011;54417;47.454;18.918;2023-12-22T16:56:07;2.47;;;1.40;;
67602;SDS011;54417;47.454;18.918;2023-12-22T17:01:16;2.70;;;1.63;;
67602;SDS011;54417;47.454;18.918;2023-12-22T17:06:49;2.10;;;1.55;;
67602;SDS011;54417;47.454;18.918;2023-12-22T17:12:00;3.33;;;1.73;;
67602;SDS011;54417;47.454;18.918;2023-12-22T17:17:11;2.75;;;1.58;;
67602;SDS011;54417;47.454;18.918;2023-12-22T17:22:23;4.00;;;1.90;;
67602;SDS011;54417;47.454;18.918;2023-12-22T17:27:32;2.08;;;1.60;;
67602;SDS011;54417;47.454;18.918;2023-12-22T17:32:41;1.98;;;1.42;;
67602;SDS011;54417;47.454;18.918;2023-12-22T17:37:46;3.28;;;1.20;;
67602;SDS011;54417;47.454;18.918;2023-12-22T17:42:56;3.05;;;2.15;;
67602;SDS011;54417;47.454;18.918;2023-12-22T17:47:59;2.78;;;1.20;;
67602;SDS011;54417;47.454;18.918;2023-12-22T17:53:10;1.63;;;0.85;;
67602;SDS011;54417;47.454;18.918;2023-12-22T17:58:18;1.58;;;1.13;;
67602;SDS011;54417;47.454;18.918;2023-12-22T18:03:27;1.00;;;0.90;;
67602;SDS011;54417;47.454;18.918;2023-12-22T18:08:38;2.53;;;0.98;;
67602;SDS011;54417;47.454;18.918;2023-12-22T18:13:46;1.00;;;0.85;;
67602;SDS011;54417;47.454;18.918;2023-12-22T18:18:54;1.65;;;0.90;;
67602;SDS011;54417;47.454;18.918;2023-12-22T18:24:05;1.75;;;0.77;;
67602;SDS011;54417;47.454;18.918;2023-12-22T18:29:14;1.53;;;1.07;;
67602;SDS011;54417;47.454;18.918;2023-12-22T18:34:23;7.03;;;1.35;;
67602;SDS011;54417;47.454;18.918;2023-12-22T18:39:33;5.07;;;1.08;;
67602;SDS011;54417;47.454;18.918;2023-12-22T18:44:43;3.53;;;1.00;;
67602;SDS011;54417;47.454;18.918;2023-12-22T18:49:52;1.33;;;0.98;;
67602;SDS011;54417;47.454;18.918;2023-12-22T18:55:02;1.73;;;1.02;;
67602;SDS011;54417;47.454;18.918;2023-12-22T19:00:07;2.75;;;0.93;;
67602;SDS011;54417;47.454;18.918;2023-12-22T19:05:12;1.02;;;1.02;;
67602;SDS011;54417;47.454;18.918;2023-12-22T19:10:22;0.60;;;0.60;;
67602;SDS011;54417;47.454;18.918;2023-12-22T19:15:31;1.42;;;0.90;;
67602;SDS011;54417;47.454;18.918;2023-12-22T19:20:41;1.48;;;0.88;;
67602;SDS011;54417;47.454;18.918;2023-12-22T19:25:46;0.80;;;0.80;;
67602;SDS011;54417;47.454;18.918;2023-12-22T19:30:55;2.60;;;0.80;;
67602;SDS011;54417;47.454;18.918;2023-12-22T19:36:04;2.00;;;1.30;;
67602;SDS011;54417;47.454;18.918;2023-12-22T19:41:15;0.80;;;0.80;;
67602;SDS011;54417;47.454;18.918;2023-12-22T19:46:24;0.95;;;0.90;;
67602;SDS011;54417;47.454;18.918;2023-12-22T19:51:28;1.20;;;1.10;;
67602;SDS011;54417;47.454;18.918;2023-12-22T19:56:38;0.82;;;0.82;;
67602;SDS011;54417;47.454;18.918;2023-12-22T20:01:47;3.22;;;1.10;;
67602;SDS011;54417;47.454;18.918;2023-12-22T20:06:55;1.95;;;1.20;;
67602;SDS011;54417;47.454;18.918;2023-12-22T20:12:06;4.97;;;1.10;;
67602;SDS011;54417;47.454;18.918;2023-12-22T20:17:16;0.70;;;0.70;;
67602;SDS011;54417;47.454;18.918;2023-12-22T20:22:25;0.93;;;0.70;;
67602;SDS011;54417;47.454;18.918;2023-12-22T20:27:35;2.42;;;0.60;;
67602;SDS011;54417;47.454;18.918;2023-12-22T20:32:44;0.70;;;0.52;;
67602;SDS011;54417;47.454;18.918;2023-12-22T20:37:50;0.50;;;0.50;;
67602;SDS011;54417;47.454;18.918;2023-12-22T20:43:00;0.45;;;0.45;;
67602;SDS011;54417;47.454;18.918;2023-12-22T20:48:09;0.70;;;0.70;;
67602;SDS011;54417;47.454;18.918;2023-12-22T20:53:19;0.60;;;0.60;;
67602;SDS011;54417;47.454;18.918;2023-12-22T20:58:29;1.05;;;0.60;;
67602;SDS011;54417;47.454;18.918;2023-12-22T21:03:33;0.60;;;0.60;;
67602;SDS011;54417;47.454;18.918;2023-12-22T21:08:42;0.68;;;0.68;;
67602;SDS011;54417;47.454;18.918;2023-12-22T21:13:47;0.60;;;0.60;;
67602;SDS011;54417;47.454;18.918;2023-12-22T21:18:56;0.70;;;0.70;;
67602;SDS011;54417;47.454;18.918;2023-12-22T21:24:05;1.60;;;0.73;;
67602;SDS011;54417;47.454;18.918;2023-12-22T21:29:15;0.60;;;0.60;;
67602;SDS011;54417;47.454;18.918;2023-12-22T21:34:24;0.50;;;0.50;;
67602;SDS011;54417;47.454;18.918;2023-12-22T21:39:33;0.82;;;0.55;;
67602;SDS011;54417;47.454;18.918;2023-12-22T21:44:43;1.45;;;0.70;;
67602;SDS011;54417;47.454;18.918;2023-12-22T21:49:52;1.00;;;0.70;;
67602;SDS011;54417;47.454;18.918;2023-12-22T21:55:01;0.80;;;0.80;;
67602;SDS011;54417;47.454;18.918;2023-12-22T22:00:07;0.60;;;0.60;;
67602;SDS011;54417;47.454;18.918;2023-12-22T22:05:16;3.83;;;0.70;;
67602;SDS011;54417;47.454;18.918;2023-12-22T22:10:20;0.50;;;0.50;;
67602;SDS011;54417;47.454;18.918;2023-12-22T22:15:30;2.33;;;0.73;;
67602;SDS011;54417;47.454;18.918;2023-12-22T22:20:35;0.63;;;0.63;;
67602;SDS011;54417;47.454;18.918;2023-12-22T22:25:44;2.03;;;0.60;;
67602;SDS011;54417;47.454;18.918;2023-12-22T22:30:54;0.50;;;0.50;;
67602;SDS011;54417;47.454;18.918;2023-12-22T22:36:03;0.90;;;0.85;;
67602;SDS011;54417;47.454;18.918;2023-12-22T22:41:12;0.55;;;0.55;;
67602;SDS011;54417;47.454;18.918;2023-12-22T22:46:17;1.00;;;0.88;;
67602;SDS011;54417;47.454;18.918;2023-12-22T22:51:26;0.73;;;0.70;;
67602;SDS011;54417;47.454;18.918;2023-12-22T22:56:37;0.82;;;0.82;;
67602;SDS011;54417;47.454;18.918;2023-12-22T23:01:52;0.70;;;0.70;;
67602;SDS011;54417;47.454;18.918;2023-12-22T23:07:01;0.98;;;0.98;;
67602;SDS011;54417;47.454;18.918;2023-12-22T23:12:09;0.73;;;0.60;;
67602;SDS011;54417;47.454;18.918;2023-12-22T23:17:15;1.10;;;0.75;;
67602;SDS011;54417;47.454;18.918;2023-12-22T23:22:19;0.60;;;0.60;;
67602;SDS011;54417;47.454;18.918;2023-12-22T23:27:27;0.73;;;0.73;;
67602;SDS011;54417;47.454;18.918;2023-12-22T23:32:32;0.93;;;0.90;;
67602;SDS011;54417;47.454;18.918;2023-12-22T23:37:41;1.83;;;1.00;;
67602;SDS011;54417;47.454;18.918;2023-12-22T23:42:50;0.65;;;0.65;;
67602;SDS011;54417;47.454;18.918;2023-12-22T23:48:00;1.27;;;1.17;;
67602;SDS011;54417;47.454;18.918;2023-12-22T23:53:09;2.33;;;1.25;;
67602;SDS011;54417;47.454;18.918;2023-12-22T23:58:18;0.85;;;0.85;;
